Valladolid

latitud = 41° 39' 8''N | longitud = 004° 43' 24''W
690 metros sobre el nivel del mar | datos mensuales

Fecha, hora, temperatura, viento dirección y velocidad, humedad y presión.

  • 25-09-2017 00:00:00 | 20.20°C | Oeste |4.00 km/h | 23.00% | 935.50 hPa
  • 24-09-2017 23:00:00 | 20.70°C | Sur |3.00 km/h | 22.00% | 935.20 hPa
  • 24-09-2017 22:00:00 | 21.50°C | Oeste |6.00 km/h | 20.00% | 934.80 hPa
  • 24-09-2017 21:00:00 | 23.80°C | Oeste |9.00 km/h | 17.00% | 934.20 hPa
  • 24-09-2017 20:00:00 | 25.40°C | Oeste |9.00 km/h | 15.00% | 934.00 hPa
  • 24-09-2017 19:00:00 | 27.50°C | Oeste |14.00 km/h | 22.00% | 933.60 hPa
  • 24-09-2017 18:00:00 | 28.70°C | Oeste |17.00 km/h | 19.00% | 933.90 hPa
  • 24-09-2017 17:00:00 | 29.00°C | Sudoeste |15.00 km/h | 19.00% | 934.20 hPa
  • 24-09-2017 16:00:00 | 28.80°C | Sudoeste |13.00 km/h | 21.00% | 934.60 hPa
  • 24-09-2017 15:00:00 | 27.60°C | Sur |5.00 km/h | 26.00% | 935.10 hPa
  • 24-09-2017 14:00:00 | 26.20°C | Sudoeste |8.00 km/h | 29.00% | 935.80 hPa
  • 24-09-2017 13:00:00 | 23.80°C | Sur |6.00 km/h | 32.00% | 936.40 hPa
  • 24-09-2017 12:00:00 | 21.10°C | Sudoeste |5.00 km/h | 36.00% | 936.70 hPa
  • 24-09-2017 11:00:00 | 18.70°C | Sudeste |4.00 km/h | 42.00% | 936.70 hPa
  • 24-09-2017 10:00:00 | 16.10°C | Sudeste |6.00 km/h | 47.00% | 936.40 hPa
  • 24-09-2017 09:00:00 | 11.60°C | Calma |0.00 km/h | 59.00% | 936.00 hPa
  • 24-09-2017 08:00:00 | 11.60°C | Oeste |2.00 km/h | 58.00% | 936.00 hPa
  • 24-09-2017 07:00:00 | 13.40°C | Sur |6.00 km/h | 53.00% | 935.60 hPa
  • 24-09-2017 06:00:00 | 14.40°C | Sur |11.00 km/h | 50.00% | 935.50 hPa
  • 24-09-2017 05:00:00 | 14.50°C | Sur |4.00 km/h | 51.00% | 935.40 hPa
  • 24-09-2017 04:00:00 | 15.00°C | Sudeste |4.00 km/h | 51.00% | 935.60 hPa
  • 24-09-2017 03:00:00 | 15.50°C | Sudeste |3.00 km/h | 47.00% | 936.00 hPa
  • 24-09-2017 02:00:00 | 17.20°C | Sur |5.00 km/h | 45.00% | 935.70 hPa
  • 24-09-2017 01:00:00 | 17.70°C | Calma |0.00 km/h | 39.00% | 935.60 hPa